Time;durP1;ratioP1;P1;durP2;ratioP2;P2;SDS_P1;SDS_P2;PMS_P1;PMS_P2;Temp;Humidity;BMP_temperature;BMP_pressure;BME280_temperature;BME280_humidity;BME280_pressure;Samples;Min_cycle;Max_cycle;Signal;HPM_P1;HPM_P2
2022/05/06 00:01:03;;;;;;;0.60;0.10;;;14.20;99.90;;;;;;5090354;28;20974;-72
2022/05/06 00:03:32;;;;;;;0.90;0.77;;;14.10;99.90;;;;;;5085963;28;20461;-74
2022/05/06 00:06:00;;;;;;;0.60;0.20;;;14.10;99.90;;;;;;5090589;28;20531;-72
2022/05/06 00:08:28;;;;;;;0.80;0.50;;;14.10;99.90;;;;;;5090552;28;20449;-72
2022/05/06 00:10:56;;;;;;;0.60;0.17;;;14.00;99.90;;;;;;5082908;28;20478;-72
2022/05/06 00:13:23;;;;;;;0.70;0.37;;;13.90;99.90;;;;;;5090594;28;20464;-71
2022/05/06 00:15:52;;;;;;;0.60;0.10;;;13.90;99.90;;;;;;5090606;28;20437;-71
2022/05/06 00:18:20;;;;;;;0.60;0.10;;;13.90;99.90;;;;;;5091086;28;20786;-72
2022/05/06 00:20:49;;;;;;;0.93;0.40;;;13.90;99.90;;;;;;5090426;28;20986;-73
2022/05/06 00:23:17;;;;;;;0.60;0.10;;;13.80;99.90;;;;;;5090789;28;20536;-72
2022/05/06 00:25:45;;;;;;;0.60;0.10;;;13.90;99.90;;;;;;5090230;28;20444;-71
2022/05/06 00:28:13;;;;;;;0.60;0.10;;;13.80;99.90;;;;;;5089569;28;20897;-72
2022/05/06 00:30:41;;;;;;;0.60;0.30;;;13.80;99.90;;;;;;5085363;28;20480;-71
2022/05/06 00:33:09;;;;;;;0.93;0.93;;;;;;;;;;5090716;28;20490;-71
2022/05/06 00:35:37;;;;;;;0.60;0.10;;;13.80;99.90;;;;;;5090227;28;20445;-72
2022/05/06 00:38:07;;;;;;;0.63;0.27;;;13.80;99.90;;;;;;5087654;28;20835;-71
2022/05/06 00:40:35;;;;;;;0.60;0.20;;;13.70;99.90;;;;;;5096362;28;20521;-72
2022/05/06 00:43:03;;;;;;;2.07;0.40;;;;;;;;;;5089501;28;20479;-72
2022/05/06 00:45:40;;;;;;;0.60;0.20;;;13.70;99.90;;;;;;5091187;28;20444;-72
2022/05/06 00:48:08;;;;;;;0.60;0.30;;;13.70;99.90;;;;;;5095261;28;20444;-74
2022/05/06 00:50:38;;;;;;;0.60;0.10;;;13.60;99.90;;;;;;5098140;28;20592;-73
2022/05/06 00:53:08;;;;;;;0.60;0.20;;;13.60;99.90;;;;;;5091527;28;20451;-73
2022/05/06 00:55:36;;;;;;;0.60;0.20;;;13.60;99.90;;;;;;5090940;28;20448;-74
2022/05/06 00:58:05;;;;;;;0.60;0.20;;;13.50;99.90;;;;;;5091989;28;20444;-76
2022/05/06 01:00:33;;;;;;;0.60;0.20;;;13.50;99.90;;;;;;5089238;28;20508;-74
2022/05/06 01:03:01;;;;;;;0.60;0.20;;;13.50;99.90;;;;;;5091299;28;20452;-73
2022/05/06 01:05:31;;;;;;;0.60;0.30;;;13.40;99.90;;;;;;5092473;28;20434;-74
2022/05/06 01:07:59;;;;;;;0.70;0.30;;;13.40;99.90;;;;;;5090210;28;20954;-75
2022/05/06 01:10:28;;;;;;;0.60;0.20;;;13.40;99.90;;;;;;5092071;28;20791;-73
2022/05/06 01:12:56;;;;;;;0.60;0.10;;;13.40;99.90;;;;;;5094428;28;20445;-72
2022/05/06 01:15:27;;;;;;;0.60;0.10;;;13.40;99.90;;;;;;5093483;28;20982;-71
2022/05/06 01:17:56;;;;;;;0.73;0.40;;;13.30;99.90;;;;;;5089200;28;20539;-72
2022/05/06 01:20:26;;;;;;;0.60;0.20;;;13.30;99.90;;;;;;5090065;28;20911;-72
2022/05/06 01:22:58;;;;;;;1.40;1.30;;;13.30;99.90;;;;;;5094127;28;20542;-72
2022/05/06 01:25:27;;;;;;;0.70;0.43;;;13.20;99.90;;;;;;5093405;28;20460;-71
2022/05/06 01:27:57;;;;;;;0.60;0.10;;;13.20;99.90;;;;;;5094469;28;20448;-71
2022/05/06 01:30:32;;;;;;;0.60;0.20;;;13.20;99.90;;;;;;5084031;28;20559;-72
2022/05/06 01:33:02;;;;;;;0.60;0.40;;;13.20;99.90;;;;;;5094078;28;20479;-72
2022/05/06 01:35:31;;;;;;;0.60;0.20;;;13.10;99.90;;;;;;5093692;28;20451;-72
2022/05/06 01:38:04;;;;;;;0.70;0.40;;;13.10;99.90;;;;;;5093848;28;20793;-71
2022/05/06 01:40:39;;;;;;;0.60;0.20;;;13.10;99.90;;;;;;5093879;28;20432;-71
2022/05/06 01:43:11;;;;;;;0.60;0.10;;;13.20;99.90;;;;;;5094085;28;20501;-72
2022/05/06 01:45:42;;;;;;;0.90;0.23;;;13.10;99.90;;;;;;5094085;28;20895;-72
2022/05/06 01:48:11;;;;;;;0.60;0.10;;;13.20;99.90;;;;;;5093564;28;20437;-72
2022/05/06 01:50:41;;;;;;;0.60;0.20;;;13.20;99.90;;;;;;5093434;28;20954;-72
2022/05/06 01:53:14;;;;;;;0.60;0.10;;;13.20;99.90;;;;;;5093138;28;20448;-71
2022/05/06 01:55:42;;;;;;;1.13;0.63;;;13.20;99.90;;;;;;5093079;28;20449;-72
2022/05/06 01:58:10;;;;;;;0.60;0.10;;;13.10;99.90;;;;;;5092935;28;20927;-72
2022/05/06 02:00:38;;;;;;;0.60;0.20;;;13.10;99.90;;;;;;5093624;28;20444;-73
2022/05/06 02:03:06;;;;;;;0.60;0.10;;;13.10;99.90;;;;;;5092942;28;20449;-72
2022/05/06 02:05:33;;;;;;;0.60;0.10;;;13.10;99.90;;;;;;5093072;28;20445;-72
2022/05/06 02:08:00;;;;;;;0.60;0.13;;;13.10;99.90;;;;;;5092666;28;20452;-72
2022/05/06 02:10:30;;;;;;;0.60;0.10;;;13.10;99.90;;;;;;5092874;28;20484;-73
2022/05/06 02:12:59;;;;;;;1.00;0.40;;;13.10;99.90;;;;;;5093223;28;20560;-72
2022/05/06 02:15:27;;;;;;;0.70;0.30;;;13.00;99.90;;;;;;5092420;28;20474;-71
2022/05/06 02:17:55;;;;;;;0.60;0.10;;;13.00;99.90;;;;;;5092225;28;20441;-72
2022/05/06 02:20:23;;;;;;;0.60;0.10;;;13.00;99.90;;;;;;5092291;28;20799;-72
2022/05/06 02:22:51;;;;;;;0.60;0.10;;;13.00;99.90;;;;;;5092558;28;20452;-72
2022/05/06 02:25:19;;;;;;;0.60;0.10;;;13.00;99.90;;;;;;5092281;28;20555;-71
2022/05/06 02:27:48;;;;;;;0.70;0.37;;;12.90;99.90;;;;;;5092262;28;20443;-71
2022/05/06 02:33:23;;;;;;;0.60;0.10;;;12.90;99.90;;;;;;5091474;28;20475;-72
2022/05/06 02:35:52;;;;;;;0.60;0.10;;;12.80;99.90;;;;;;5092596;28;20483;-71
2022/05/06 02:38:21;;;;;;;0.60;0.20;;;12.80;99.90;;;;;;5089356;28;20471;-71
2022/05/06 02:40:49;;;;;;;0.60;0.10;;;12.70;99.90;;;;;;5105075;28;20435;-72
2022/05/06 02:43:18;;;;;;;0.97;0.40;;;12.70;99.90;;;;;;5104960;28;20448;-71
2022/05/06 02:45:46;;;;;;;0.60;0.30;;;12.70;99.90;;;;;;5092114;28;20436;-72
2022/05/06 02:48:14;;;;;;;0.80;0.67;;;12.70;99.90;;;;;;5092415;28;20451;-72
2022/05/06 02:50:42;;;;;;;1.80;0.47;;;12.70;99.90;;;;;;5092375;28;21024;-71
2022/05/06 02:53:11;;;;;;;0.60;0.10;;;12.60;99.90;;;;;;5091897;28;20914;-73
2022/05/06 02:55:39;;;;;;;0.60;0.10;;;12.70;99.90;;;;;;5092154;28;20506;-72
2022/05/06 02:58:07;;;;;;;0.60;0.20;;;12.60;99.90;;;;;;5091382;28;20531;-72
2022/05/06 03:00:36;;;;;;;0.60;0.20;;;12.60;99.90;;;;;;5091944;28;20551;-72
2022/05/06 03:03:05;;;;;;;0.60;0.10;;;12.60;99.90;;;;;;5091569;28;20482;-71
2022/05/06 03:05:33;;;;;;;0.60;0.17;;;12.60;99.90;;;;;;5091284;28;20547;-71
2022/05/06 03:08:01;;;;;;;0.60;0.30;;;12.60;99.90;;;;;;5091398;28;20445;-72
2022/05/06 03:10:29;;;;;;;2.00;1.27;;;12.60;99.90;;;;;;5092701;28;20538;-71
2022/05/06 03:12:58;;;;;;;1.07;0.47;;;12.50;99.90;;;;;;5092547;28;20804;-70
2022/05/06 03:15:26;;;;;;;0.77;0.20;;;12.50;99.90;;;;;;5099818;22;20494;-73
2022/05/06 03:17:56;;;;;;;0.60;0.10;;;12.50;99.90;;;;;;5048802;28;20443;-74
2022/05/06 03:20:24;;;;;;;0.60;0.10;;;12.50;99.90;;;;;;5051007;28;20443;-73
2022/05/06 03:22:53;;;;;;;0.80;0.50;;;12.50;99.90;;;;;;5049601;28;20470;-73
2022/05/06 03:25:21;;;;;;;0.70;0.63;;;12.50;99.90;;;;;;5055285;28;20565;-74
2022/05/06 03:28:02;;;;;;;0.60;0.10;;;12.50;99.90;;;;;;5051833;28;20638;-75
2022/05/06 03:30:37;;;;;;;0.60;0.10;;;12.40;99.90;;;;;;5051369;28;20477;-73
2022/05/06 03:33:08;;;;;;;0.70;0.40;;;12.40;99.90;;;;;;5038985;28;20446;-75
2022/05/06 03:35:37;;;;;;;0.70;0.30;;;12.40;99.90;;;;;;5030528;28;20538;-73
2022/05/06 03:38:06;;;;;;;0.60;0.10;;;12.40;99.90;;;;;;5031291;28;20766;-73
2022/05/06 03:40:34;;;;;;;0.60;0.30;;;12.40;99.90;;;;;;5031886;28;20478;-74
2022/05/06 03:43:02;;;;;;;0.60;0.30;;;12.40;99.90;;;;;;5035361;28;20458;-75
2022/05/06 03:45:30;;;;;;;0.60;0.20;;;12.40;99.90;;;;;;5050594;28;20473;-72
2022/05/06 03:47:59;;;;;;;0.60;0.10;;;11.80;99.90;;;;;;5049888;28;20988;-74
2022/05/06 03:53:14;;;;;;;0.60;0.20;;;12.30;99.90;;;;;;5050458;28;20488;-76
2022/05/06 03:55:43;;;;;;;0.60;0.20;;;12.30;99.90;;;;;;5050491;28;21149;-75
2022/05/06 03:58:10;;;;;;;0.60;0.10;;;12.30;99.90;;;;;;5050148;28;20545;-75
2022/05/06 04:00:40;;;;;;;0.97;0.67;;;12.30;99.90;;;;;;5050919;28;20446;-76
2022/05/06 04:03:08;;;;;;;0.60;0.10;;;12.30;99.90;;;;;;5046861;28;20447;-75
2022/05/06 04:05:37;;;;;;;0.60;0.20;;;12.30;99.90;;;;;;5030793;28;20459;-76
2022/05/06 04:08:05;;;;;;;0.60;0.10;;;12.30;99.90;;;;;;5030630;28;20450;-74
2022/05/06 04:10:33;;;;;;;0.70;0.20;;;;;;;;;;5030064;28;20451;-73
2022/05/06 04:13:02;;;;;;;2.20;0.50;;;12.30;99.90;;;;;;5032871;28;20450;-73
2022/05/06 04:15:32;;;;;;;0.60;0.20;;;12.40;99.90;;;;;;5028974;28;20486;-73
2022/05/06 04:18:01;;;;;;;0.60;0.10;;;12.40;99.90;;;;;;5029999;28;20447;-74
2022/05/06 04:23:30;;;;;;;0.60;0.10;;;12.60;99.90;;;;;;5034900;28;20454;-73
2022/05/06 04:26:00;;;;;;;3.07;0.77;;;12.40;99.90;;;;;;5049518;28;20466;-73
2022/05/06 04:28:29;;;;;;;0.60;0.10;;;12.40;99.90;;;;;;5049879;28;20445;-72
2022/05/06 04:30:57;;;;;;;0.60;0.20;;;12.30;99.90;;;;;;5048543;28;20462;-74
2022/05/06 04:33:26;;;;;;;1.70;0.67;;;12.30;99.90;;;;;;5042202;28;20545;-74
2022/05/06 04:35:55;;;;;;;0.60;0.10;;;12.30;99.90;;;;;;5041549;28;20586;-71
2022/05/06 04:38:24;;;;;;;0.60;0.10;;;12.40;99.90;;;;;;5049507;28;20789;-74
2022/05/06 04:40:55;;;;;;;0.60;0.10;;;12.30;99.90;;;;;;5050769;28;20438;-72
2022/05/06 04:43:23;;;;;;;0.60;0.20;;;12.30;99.90;;;;;;5044761;28;20439;-73
2022/05/06 04:45:52;;;;;;;0.60;0.13;;;12.40;99.90;;;;;;5033611;28;20466;-73
2022/05/06 04:48:20;;;;;;;0.60;0.10;;;12.40;99.90;;;;;;5033715;28;20782;-73
2022/05/06 04:50:49;;;;;;;0.60;0.10;;;12.40;99.90;;;;;;5039030;28;20446;-73
2022/05/06 04:53:17;;;;;;;0.60;0.20;;;12.40;99.90;;;;;;5042808;28;20562;-74
2022/05/06 04:55:48;;;;;;;0.60;0.10;;;12.40;99.90;;;;;;5046910;28;20466;-73
2022/05/06 04:58:18;;;;;;;1.43;1.33;;;12.50;99.90;;;;;;5058220;28;20449;-73
2022/05/06 05:00:47;;;;;;;0.60;0.20;;;12.50;99.90;;;;;;5060013;28;20481;-76
2022/05/06 05:03:16;;;;;;;0.60;0.20;;;12.50;99.90;;;;;;5057281;28;20496;-73
2022/05/06 05:05:44;;;;;;;0.60;0.20;;;12.50;99.90;;;;;;5046883;28;20471;-74
2022/05/06 05:08:12;;;;;;;0.83;0.47;;;12.60;99.90;;;;;;5036825;28;20451;-74
2022/05/06 05:10:40;;;;;;;0.60;0.10;;;12.60;99.90;;;;;;5034149;28;20450;-73
2022/05/06 05:13:09;;;;;;;0.60;0.10;;;12.60;99.90;;;;;;5033791;28;21029;-74
2022/05/06 05:15:37;;;;;;;0.60;0.40;;;12.60;99.90;;;;;;5033427;28;21060;-73
2022/05/06 05:18:06;;;;;;;0.60;0.17;;;12.60;99.90;;;;;;5033208;28;20534;-73
2022/05/06 05:20:35;;;;;;;0.60;0.10;;;12.70;99.90;;;;;;5033987;28;20456;-73
2022/05/06 05:23:02;;;;;;;0.70;0.30;;;12.70;99.90;;;;;;5033847;28;20960;-74
2022/05/06 05:25:30;;;;;;;0.60;0.20;;;12.80;99.90;;;;;;5041187;28;20829;-74
2022/05/06 05:27:58;;;;;;;0.80;0.50;;;12.80;99.90;;;;;;5034254;28;20443;-73
2022/05/06 05:30:27;;;;;;;0.60;0.10;;;12.90;99.90;;;;;;5033926;28;20520;-73
2022/05/06 05:32:55;;;;;;;0.60;0.10;;;12.90;99.90;;;;;;5034047;28;20493;-75
2022/05/06 05:35:24;;;;;;;0.60;0.10;;;13.00;99.90;;;;;;5033185;28;20836;-76
2022/05/06 05:37:51;;;;;;;2.03;0.70;;;13.10;99.90;;;;;;5033739;28;20539;-75
2022/05/06 05:40:19;;;;;;;0.60;0.10;;;13.10;99.90;;;;;;5034375;28;20781;-76
2022/05/06 05:42:47;;;;;;;0.60;0.20;;;13.10;99.90;;;;;;5033377;28;20443;-75
2022/05/06 05:50:47;;;;;;;0.70;0.40;;;13.10;99.90;;;;;;5035316;28;20470;-74
2022/05/06 05:53:15;;;;;;;0.60;0.30;;;13.20;99.90;;;;;;5038191;28;20487;-80
2022/05/06 05:55:43;;;;;;;1.57;0.63;;;13.40;99.90;;;;;;5053441;28;20466;-76
2022/05/06 05:58:11;;;;;;;1.07;0.63;;;13.50;99.90;;;;;;5047081;28;20533;-78
2022/05/06 06:00:39;;;;;;;0.60;0.30;;;13.50;99.90;;;;;;5058344;28;20442;-79
2022/05/06 06:03:08;;;;;;;0.60;0.10;;;13.40;99.90;;;;;;5060453;28;20439;-79
2022/05/06 06:05:37;;;;;;;0.60;0.10;;;13.50;99.90;;;;;;5060672;28;20470;-79
2022/05/06 06:08:05;;;;;;;3.40;2.77;;;13.40;99.90;;;;;;5039691;28;20451;-77
2022/05/06 06:10:33;;;;;;;0.60;0.10;;;13.40;99.90;;;;;;5038129;28;20443;-77
2022/05/06 06:13:04;;;;;;;0.60;0.30;;;13.40;99.90;;;;;;5038111;28;20499;-77
2022/05/06 06:15:32;;;;;;;1.57;0.50;;;13.50;99.90;;;;;;5047609;28;20489;-77
2022/05/06 06:18:00;;;;;;;0.60;0.10;;;13.40;99.90;;;;;;5034832;28;20448;-77
2022/05/06 06:20:29;;;;;;;0.60;0.30;;;13.40;99.90;;;;;;5034952;28;20443;-77
2022/05/06 06:22:57;;;;;;;0.70;0.30;;;13.50;99.90;;;;;;5034735;28;20563;-77
2022/05/06 06:25:25;;;;;;;1.80;1.70;;;13.40;99.90;;;;;;5034319;28;20471;-76
2022/05/06 06:27:53;;;;;;;1.63;0.37;;;13.40;99.90;;;;;;5052957;28;21000;-76
2022/05/06 06:30:21;;;;;;;0.60;0.20;;;13.40;99.90;;;;;;5054415;28;20497;-76
2022/05/06 06:32:53;;;;;;;0.73;0.40;;;;;;;;;;5054169;28;20486;-78
2022/05/06 06:35:22;;;;;;;1.43;0.60;;;13.50;99.90;;;;;;5053767;28;20557;-78
2022/05/06 06:37:52;;;;;;;0.60;0.20;;;13.50;99.90;;;;;;5054373;28;20509;-77
2022/05/06 06:40:20;;;;;;;0.60;0.10;;;13.50;99.90;;;;;;5054250;28;20554;-77
2022/05/06 06:42:48;;;;;;;0.60;0.13;;;13.60;99.90;;;;;;5055205;28;20474;-77
2022/05/06 06:45:16;;;;;;;0.70;0.20;;;13.70;99.90;;;;;;5061114;28;20577;-75
2022/05/06 06:47:44;;;;;;;0.60;0.20;;;13.70;99.90;;;;;;5060939;28;20446;-77
2022/05/06 06:50:12;;;;;;;1.57;0.60;;;13.70;99.90;;;;;;5058805;28;20450;-77
2022/05/06 06:52:40;;;;;;;2.80;1.07;;;13.80;99.90;;;;;;5061768;28;20486;-76
2022/05/06 06:55:10;;;;;;;0.60;0.10;;;14.00;99.90;;;;;;5051963;28;20549;-77
2022/05/06 06:57:38;;;;;;;0.60;0.20;;;14.00;99.90;;;;;;5051496;28;20469;-74
2022/05/06 07:00:08;;;;;;;0.60;0.10;;;14.10;99.90;;;;;;5052571;28;20489;-75
2022/05/06 07:02:39;;;;;;;0.60;0.10;;;14.30;99.90;;;;;;5057230;28;20517;-76
2022/05/06 07:05:07;;;;;;;0.60;0.20;;;14.50;99.90;;;;;;5049208;28;20455;-77
2022/05/06 07:13:30;;;;;;;0.60;0.10;;;14.80;99.90;;;;;;5035487;28;20480;-74
2022/05/06 07:15:58;;;;;;;0.60;0.20;;;14.90;99.90;;;;;;5059184;28;20482;-74
2022/05/06 07:18:26;;;;;;;2.90;2.50;;;14.90;99.90;;;;;;5054798;28;20520;-75
2022/05/06 07:20:54;;;;;;;0.60;0.20;;;15.00;99.90;;;;;;5056663;28;20467;-75
2022/05/06 07:23:24;;;;;;;0.60;0.20;;;15.00;99.90;;;;;;5069983;28;20473;-75
2022/05/06 07:25:53;;;;;;;0.60;0.10;;;15.10;99.90;;;;;;5061936;28;20476;-77
2022/05/06 07:28:21;;;;;;;0.60;0.10;;;15.10;99.90;;;;;;5031480;28;20532;-75
2022/05/06 07:30:49;;;;;;;0.70;0.20;;;15.20;99.90;;;;;;5044510;28;20457;-76
2022/05/06 07:33:17;;;;;;;0.60;0.10;;;15.20;99.90;;;;;;5050638;28;20516;-76
2022/05/06 07:35:45;;;;;;;0.60;0.10;;;15.40;99.90;;;;;;5042772;28;20462;-75
2022/05/06 07:38:13;;;;;;;0.60;0.10;;;15.40;99.90;;;;;;5039129;28;20930;-76
2022/05/06 07:40:41;;;;;;;0.60;0.10;;;15.60;99.90;;;;;;5037290;28;20494;-76
2022/05/06 07:43:13;;;;;;;0.60;0.13;;;15.70;99.90;;;;;;5039760;28;20459;-77
2022/05/06 07:45:41;;;;;;;0.60;0.10;;;15.90;99.90;;;;;;5038505;28;20470;-78
2022/05/06 07:48:13;;;;;;;0.60;0.10;;;16.40;99.90;;;;;;5056445;28;20450;-73
2022/05/06 07:50:44;;;;;;;0.60;0.20;;;16.00;99.90;;;;;;5031007;28;20470;-68
2022/05/06 07:53:13;;;;;;;0.60;0.10;;;16.10;99.90;;;;;;5030839;28;20470;-70
2022/05/06 07:55:40;;;;;;;0.60;0.10;;;16.40;99.90;;;;;;5030984;28;20470;-68
2022/05/06 07:58:09;;;;;;;0.60;0.20;;;16.40;99.90;;;;;;5047366;28;20459;-69
2022/05/06 08:00:38;;;;;;;0.60;0.20;;;16.60;99.90;;;;;;5050227;28;20446;-67
2022/05/06 08:05:56;;;;;;;20.73;8.53;;;16.90;99.90;;;;;;5038089;28;20600;-72
2022/05/06 08:08:26;;;;;;;0.60;0.20;;;16.90;99.90;;;;;;5052788;28;20566;-72
2022/05/06 08:10:54;;;;;;;0.60;0.10;;;16.90;99.90;;;;;;5051582;28;20455;-76
2022/05/06 08:13:22;;;;;;;0.80;0.40;;;16.90;99.90;;;;;;5052204;28;20491;-75
2022/05/06 08:15:52;;;;;;;0.60;0.20;;;16.90;99.90;;;;;;5045046;28;20572;-78
2022/05/06 08:18:21;;;;;;;0.73;0.40;;;16.90;99.90;;;;;;5058261;28;20456;-77
2022/05/06 08:20:48;;;;;;;0.60;0.10;;;16.80;99.90;;;;;;5040035;28;20934;-76
2022/05/06 08:23:16;;;;;;;0.60;0.10;;;16.80;99.90;;;;;;5040347;28;20510;-77
2022/05/06 08:25:44;;;;;;;0.60;0.10;;;16.80;99.90;;;;;;5038939;28;20464;-74
2022/05/06 08:28:13;;;;;;;0.60;0.10;;;16.80;99.90;;;;;;5056202;28;20542;-74
2022/05/06 08:30:41;;;;;;;0.60;0.30;;;16.80;99.90;;;;;;5040304;28;20438;-74
2022/05/06 08:33:11;;;;;;;0.60;0.20;;;16.80;99.90;;;;;;5049216;28;21101;-71
2022/05/06 08:35:39;;;;;;;0.60;0.10;;;16.90;99.90;;;;;;5030991;28;20468;-70
2022/05/06 08:38:08;;;;;;;0.60;0.20;;;16.90;99.90;;;;;;5017821;28;21287;-71
2022/05/06 08:40:36;;;;;;;1.53;1.07;;;17.20;99.90;;;;;;5018650;28;20813;-70
2022/05/06 08:43:05;;;;;;;0.60;0.17;;;17.20;99.90;;;;;;5019216;28;20444;-71
2022/05/06 08:51:09;;;;;;;0.60;0.10;;;17.50;99.90;;;;;;5021936;28;20473;-75
2022/05/06 08:53:39;;;;;;;0.60;0.10;;;17.70;99.90;;;;;;5045255;28;20479;-75
2022/05/06 08:56:07;;;;;;;0.60;0.10;;;17.60;99.90;;;;;;5017402;28;20549;-78
2022/05/06 08:58:37;;;;;;;0.60;0.10;;;17.50;99.90;;;;;;5019784;28;20445;-77
2022/05/06 09:01:07;;;;;;;0.60;0.10;;;17.50;99.90;;;;;;5018788;28;20507;-76
2022/05/06 09:03:47;;;;;;;0.60;0.10;;;17.50;99.90;;;;;;5030701;28;20429;-76
2022/05/06 09:06:19;;;;;;;0.60;0.10;;;17.50;99.90;;;;;;5048952;28;20463;-74
2022/05/06 09:08:48;;;;;;;0.60;0.10;;;17.60;99.90;;;;;;5042147;28;20451;-75
2022/05/06 09:11:18;;;;;;;0.60;0.10;;;17.70;99.90;;;;;;5028018;28;20511;-74
2022/05/06 09:13:55;;;;;;;0.70;0.20;;;17.80;99.90;;;;;;5029952;28;20479;-77
2022/05/06 09:16:41;;;;;;;0.60;0.20;;;17.80;99.90;;;;;;5028253;28;20502;-74
2022/05/06 09:19:17;;;;;;;0.60;0.20;;;17.80;99.90;;;;;;5026826;28;20785;-77
2022/05/06 09:22:13;;;;;;;0.70;0.27;;;18.00;99.90;;;;;;5048295;22;21050;-76
2022/05/06 09:24:42;;;;;;;0.60;0.10;;;18.00;99.90;;;;;;5014978;28;20468;-77
2022/05/06 09:27:11;;;;;;;0.60;0.10;;;18.10;99.90;;;;;;5012656;28;20534;-77
2022/05/06 09:29:41;;;;;;;0.60;0.20;;;18.20;99.90;;;;;;5015032;28;20478;-75
2022/05/06 09:32:24;;;;;;;2.10;2.00;;;18.40;99.90;;;;;;5013677;28;20861;-74
2022/05/06 09:34:55;;;;;;;0.60;0.20;;;18.40;99.90;;;;;;5007790;28;20512;-75
2022/05/06 09:37:38;;;;;;;0.60;0.20;;;18.30;99.90;;;;;;5003022;28;20460;-75
2022/05/06 09:40:09;;;;;;;0.60;0.10;;;18.40;99.90;;;;;;5007148;28;20555;-74
2022/05/06 09:42:39;;;;;;;0.60;0.10;;;18.40;99.90;;;;;;5005362;28;20490;-73
2022/05/06 09:45:09;;;;;;;0.60;0.10;;;18.50;99.90;;;;;;5005283;28;20698;-74
2022/05/06 09:47:38;;;;;;;0.60;0.10;;;18.60;99.90;;;;;;5006788;28;20506;-75
2022/05/06 09:50:09;;;;;;;0.60;0.20;;;18.70;99.90;;;;;;5005586;28;20518;-75
2022/05/06 09:52:37;;;;;;;0.60;0.10;;;18.70;99.90;;;;;;5010281;28;20446;-76
2022/05/06 09:55:07;;;;;;;0.60;0.10;;;18.80;99.90;;;;;;5006612;28;20494;-76
2022/05/06 09:57:37;;;;;;;0.60;0.10;;;18.90;99.90;;;;;;5005014;28;20932;-76
2022/05/06 10:00:07;;;;;;;0.60;0.20;;;19.00;99.90;;;;;;5004404;28;20754;-75
2022/05/06 10:02:37;;;;;;;0.60;0.10;;;19.00;99.90;;;;;;5012055;28;20469;-77
2022/05/06 10:05:08;;;;;;;0.60;0.13;;;19.00;99.90;;;;;;5009703;28;20463;-74
2022/05/06 10:07:38;;;;;;;0.80;0.43;;;19.00;99.90;;;;;;5007787;28;20508;-80
2022/05/06 10:10:12;;;;;;;0.60;0.10;;;18.80;99.90;;;;;;5011294;28;20425;-72
2022/05/06 10:12:42;;;;;;;0.60;0.10;;;18.90;99.90;;;;;;5012386;28;20510;-74
2022/05/06 10:15:13;;;;;;;0.60;0.13;;;18.90;99.90;;;;;;5012372;28;20480;-75
2022/05/06 10:17:52;;;;;;;0.60;0.10;;;17.70;99.90;;;;;;5013392;28;20472;-75
2022/05/06 10:20:50;;;;;;;0.90;0.40;;;19.40;99.90;;;;;;5010571;28;20442;-74
2022/05/06 10:23:19;;;;;;;0.70;0.20;;;19.30;99.90;;;;;;5021367;28;20867;-76
2022/05/06 10:25:52;;;;;;;0.60;0.10;;;19.10;99.90;;;;;;5029001;28;20501;-77
2022/05/06 10:34:31;;;;;;;0.60;0.10;;;19.30;99.90;;;;;;5024291;28;20865;-77
2022/05/06 10:37:02;;;;;;;0.60;0.17;;;19.60;99.90;;;;;;5020249;28;20471;-78
2022/05/06 10:39:35;;;;;;;0.60;0.10;;;19.70;99.90;;;;;;5007518;28;20439;-77
2022/05/06 10:42:06;;;;;;;0.60;0.10;;;19.60;99.90;;;;;;5017355;28;20472;-77
2022/05/06 10:44:39;;;;;;;0.60;0.10;;;19.60;99.90;;;;;;5031703;28;20483;-76
2022/05/06 10:47:41;;;;;;;0.60;0.20;;;19.80;99.90;;;;;;5026691;28;20465;-76
2022/05/06 10:50:15;;;;;;;0.70;0.10;;;20.10;99.90;;;;;;5020762;28;20451;-77
2022/05/06 10:52:46;;;;;;;0.70;0.10;;;21.20;99.90;;;;;;5022780;28;20453;-78
2022/05/06 10:55:19;;;;;;;0.97;0.40;;;20.30;99.90;;;;;;5023681;28;20488;-77
2022/05/06 10:57:56;;;;;;;0.70;0.20;;;20.20;99.90;;;;;;5019320;28;20441;-76
2022/05/06 11:00:27;;;;;;;0.83;0.60;;;20.20;99.90;;;;;;5021960;28;20585;-76
2022/05/06 11:02:58;;;;;;;0.70;0.17;;;20.20;99.90;;;;;;5028403;28;20523;-76
2022/05/06 11:05:29;;;;;;;0.70;0.10;;;20.20;99.90;;;;;;5021293;28;20545;-80
2022/05/06 11:08:05;;;;;;;0.67;0.17;;;20.30;99.90;;;;;;5014042;28;20478;-79
2022/05/06 11:10:34;;;;;;;0.67;0.20;;;20.30;99.90;;;;;;5017379;28;20711;-81
2022/05/06 11:13:25;;;;;;;0.70;0.17;;;20.30;99.90;;;;;;5028672;28;20437;-79
2022/05/06 11:15:55;;;;;;;1.10;0.60;;;20.30;99.90;;;;;;5018967;28;20509;-80
2022/05/06 11:18:24;;;;;;;2.00;1.50;;;20.30;99.90;;;;;;5012470;28;20479;-80
2022/05/06 11:20:52;;;;;;;0.60;0.10;;;20.20;99.90;;;;;;5019009;28;20481;-79
2022/05/06 11:23:28;;;;;;;0.60;0.10;;;20.30;99.90;;;;;;5022436;28;20465;-79
2022/05/06 11:25:58;;;;;;;0.67;0.10;;;20.30;99.90;;;;;;5030388;28;20507;-75
2022/05/06 11:28:27;;;;;;;0.70;0.10;;;20.70;99.90;;;;;;5028274;28;20525;-79
2022/05/06 11:30:55;;;;;;;0.90;0.40;;;20.70;99.90;;;;;;5013306;28;20481;-80
2022/05/06 11:33:25;;;;;;;0.70;0.30;;;20.70;99.90;;;;;;5011229;28;20555;-77
2022/05/06 11:36:01;;;;;;;0.70;0.10;;;20.70;99.90;;;;;;5016737;28;20481;-79
2022/05/06 11:38:33;;;;;;;0.67;0.10;;;20.60;99.90;;;;;;5018236;28;20544;-78
2022/05/06 11:41:08;;;;;;;0.70;0.30;;;20.80;99.90;;;;;;5015904;28;20599;-77
2022/05/06 11:43:36;;;;;;;0.60;0.10;;;20.70;99.90;;;;;;5022705;28;20440;-79
2022/05/06 11:48:50;;;;;;;0.70;0.30;;;21.00;99.90;;;;;;5016562;28;20489;-79
2022/05/06 11:51:22;;;;;;;1.50;1.40;;;20.60;99.90;;;;;;5020215;28;20469;-79
2022/05/06 11:53:52;;;;;;;0.70;0.10;;;20.40;99.90;;;;;;5023128;28;20916;-80
2022/05/06 11:56:25;;;;;;;0.60;0.10;;;20.40;99.90;;;;;;5026902;28;20484;-78
2022/05/06 11:58:55;;;;;;;0.70;0.10;;;20.30;99.90;;;;;;5022416;28;20789;-79
2022/05/06 12:01:27;;;;;;;0.67;0.10;;;20.50;99.90;;;;;;5017940;28;20525;-78
2022/05/06 12:03:59;;;;;;;0.83;0.47;;;20.60;99.90;;;;;;5017219;28;20450;-78
2022/05/06 12:06:37;;;;;;;0.70;0.20;;;20.70;99.90;;;;;;5025988;28;20442;-74
2022/05/06 12:09:12;;;;;;;0.70;0.30;;;20.80;99.90;;;;;;5017972;28;20430;-77
2022/05/06 12:11:40;;;;;;;0.67;0.20;;;20.80;99.90;;;;;;5020609;28;20530;-80
2022/05/06 12:14:12;;;;;;;0.70;0.13;;;20.80;99.90;;;;;;5019813;28;20455;-79
2022/05/06 12:16:55;;;;;;;0.70;0.20;;;21.00;99.90;;;;;;5024465;28;21005;-76
2022/05/06 12:19:39;;;;;;;0.70;0.20;;;21.10;99.90;;;;;;5019640;28;20450;-78
2022/05/06 12:22:08;;;;;;;0.70;0.10;;;21.10;99.90;;;;;;5017966;28;20525;-78
2022/05/06 12:24:46;;;;;;;0.70;0.20;;;21.30;99.90;;;;;;5009512;28;20451;-76
2022/05/06 12:27:24;;;;;;;0.70;0.20;;;21.30;99.90;;;;;;5003044;28;20462;-78
2022/05/06 12:29:53;;;;;;;0.70;0.20;;;21.30;99.90;;;;;;5006963;28;20472;-76
2022/05/06 12:32:24;;;;;;;0.70;0.10;;;21.40;99.90;;;;;;5007888;28;20491;-77
2022/05/06 12:35:08;;;;;;;0.70;0.10;;;21.50;99.90;;;;;;5008876;28;20453;-77
2022/05/06 12:37:36;;;;;;;0.70;0.20;;;21.70;99.90;;;;;;5003189;28;20447;-76
2022/05/06 12:40:07;;;;;;;0.70;0.10;;;;;;;;;;5006603;28;20451;-78
2022/05/06 12:42:35;;;;;;;0.70;0.20;;;;;;;;;;5005391;28;20550;-78
2022/05/06 12:45:23;;;;;;;0.70;0.10;;;22.00;99.90;;;;;;5013890;28;20522;-78
2022/05/06 12:50:40;;;;;;;0.70;0.20;;;21.80;99.90;;;;;;4994215;28;20471;-77
2022/05/06 12:53:08;;;;;;;0.70;0.20;;;;;;;;;;4993529;28;20544;-75
2022/05/06 12:55:38;;;;;;;0.70;0.20;;;21.60;99.90;;;;;;4998868;28;20486;-76
2022/05/06 12:58:06;;;;;;;0.70;0.10;;;21.80;99.90;;;;;;5034209;28;20449;-75
2022/05/06 13:00:36;;;;;;;0.70;0.10;;;21.90;99.90;;;;;;5033383;28;20463;-75
2022/05/06 13:03:06;;;;;;;0.70;0.20;;;;;;;;;;5037391;28;20453;-77
2022/05/06 13:05:35;;;;;;;0.73;0.27;;;22.00;99.90;;;;;;5049300;28;20468;-75
2022/05/06 13:08:06;;;;;;;0.70;0.20;;;21.90;99.90;;;;;;5025168;28;20458;-74
2022/05/06 13:10:35;;;;;;;0.70;0.20;;;21.90;99.90;;;;;;5001825;28;20563;-77
2022/05/06 13:13:05;;;;;;;0.70;0.10;;;;;;;;;;4999073;28;20456;-77
2022/05/06 13:15:33;;;;;;;0.70;0.10;;;21.80;99.90;;;;;;4999593;28;20498;-77
2022/05/06 13:18:01;;;;;;;0.70;0.30;;;22.00;99.90;;;;;;5000887;28;20868;-76
2022/05/06 13:20:29;;;;;;;0.70;0.10;;;22.10;99.90;;;;;;4996933;28;20488;-75
2022/05/06 13:22:59;;;;;;;0.70;0.10;;;22.20;99.90;;;;;;4998313;28;20481;-75
2022/05/06 13:25:28;;;;;;;0.70;0.20;;;22.20;99.90;;;;;;4997830;28;20462;-76
2022/05/06 13:27:56;;;;;;;0.80;0.30;;;;;;;;;;5013446;28;20458;-77
2022/05/06 13:30:28;;;;;;;0.70;0.20;;;21.60;99.90;;;;;;5016449;28;20487;-77
2022/05/06 13:32:56;;;;;;;1.00;0.40;;;21.40;99.90;;;;;;5027105;28;20604;-77
2022/05/06 13:35:28;;;;;;;0.70;0.10;;;21.40;99.90;;;;;;5037479;28;20450;-79
2022/05/06 13:37:56;;;;;;;0.70;0.10;;;21.50;99.90;;;;;;5028795;28;20439;-75
2022/05/06 13:40:24;;;;;;;0.80;0.30;;;21.80;99.90;;;;;;5016202;28;20432;-77
2022/05/06 13:42:52;;;;;;;0.70;0.20;;;21.80;99.90;;;;;;5016263;28;20438;-76
2022/05/06 13:45:20;;;;;;;0.70;0.20;;;21.90;99.90;;;;;;5024510;28;20454;-78